createdAt,value
2023-05-08T00:02:24.408Z,79.86
2023-05-08T00:04:52.746Z,79.15
2023-05-08T00:07:20.649Z,74.98
2023-05-08T00:09:48.590Z,73.68
2023-05-08T00:12:16.928Z,72.91
2023-05-08T00:14:44.960Z,71.92
2023-05-08T00:17:13.036Z,72.16
2023-05-08T00:19:41.427Z,72.47
2023-05-08T00:22:09.301Z,72.26
2023-05-08T00:24:37.388Z,72.58
2023-05-08T00:27:05.913Z,72.96
2023-05-08T00:29:34.523Z,73.70
2023-05-08T00:32:02.717Z,75.15
2023-05-08T00:34:30.959Z,74.86
2023-05-08T00:36:59.027Z,74.94
2023-05-08T00:39:27.136Z,74.99
2023-05-08T00:41:55.800Z,76.28
2023-05-08T00:44:23.607Z,76.05
2023-05-08T00:46:51.784Z,75.90
2023-05-08T00:49:20.859Z,75.14
2023-05-08T00:51:51.694Z,74.70
2023-05-08T00:54:20.784Z,74.76
2023-05-08T00:56:51.146Z,74.88
2023-05-08T00:59:22.615Z,75.24
2023-05-08T01:01:52.564Z,74.78
2023-05-08T01:04:23.522Z,74.62
2023-05-08T01:06:51.726Z,75.14
2023-05-08T01:09:19.605Z,75.00
2023-05-08T01:12:23.547Z,74.96
2023-05-08T01:15:03.829Z,76.65
2023-05-08T01:18:13.578Z,80.31
2023-05-08T01:21:01.480Z,81.03
2023-05-08T01:23:48.278Z,84.18
2023-05-08T01:27:03.684Z,85.89
2023-05-08T01:29:53.158Z,87.29
2023-05-08T01:32:43.310Z,88.25
2023-05-08T01:35:35.014Z,88.73
2023-05-08T01:38:48.137Z,88.02
2023-05-08T01:41:30.984Z,87.34
2023-05-08T01:44:25.839Z,85.92
2023-05-08T01:46:56.677Z,83.91
2023-05-08T01:49:28.851Z,81.11
2023-05-08T01:52:05.633Z,78.80
2023-05-08T01:54:59.322Z,78.03
2023-05-08T01:57:30.269Z,77.65
2023-05-08T02:00:01.488Z,78.66
2023-05-08T02:02:35.045Z,78.33
2023-05-08T02:05:05.717Z,77.54
2023-05-08T02:07:38.315Z,77.20
2023-05-08T02:10:08.689Z,77.37
2023-05-08T02:12:38.599Z,77.51
2023-05-08T02:15:09.661Z,77.26
2023-05-08T02:17:41.266Z,76.43
2023-05-08T02:20:15.683Z,76.84
2023-05-08T02:22:45.872Z,77.18
2023-05-08T02:25:16.576Z,79.22
2023-05-08T02:27:47.224Z,77.77
2023-05-08T02:30:17.930Z,77.80
2023-05-08T02:32:48.421Z,77.47
2023-05-08T02:35:19.136Z,77.12
2023-05-08T02:37:52.269Z,76.44
2023-05-08T02:40:25.519Z,76.49
2023-05-08T02:42:53.989Z,76.47
2023-05-08T02:45:27.642Z,75.36
2023-05-08T02:48:16.220Z,75.90
2023-05-08T02:51:07.550Z,74.19
2023-05-08T02:53:41.483Z,74.13
2023-05-08T02:56:19.145Z,73.69
2023-05-08T02:59:00.288Z,73.63
2023-05-08T03:01:54.644Z,73.65
2023-05-08T03:04:30.226Z,73.38
2023-05-08T03:06:59.459Z,73.68
2023-05-08T03:09:39.375Z,75.40
2023-05-08T03:12:13.365Z,75.35
2023-05-08T03:14:53.280Z,73.67
2023-05-08T03:17:23.442Z,73.15
2023-05-08T03:19:58.445Z,75.03
2023-05-08T03:22:30.715Z,73.50
2023-05-08T03:25:02.909Z,73.09
2023-05-08T03:27:33.976Z,72.42
2023-05-08T03:30:02.757Z,72.27
2023-05-08T03:32:35.911Z,71.01
2023-05-08T03:35:05.911Z,71.01
2023-05-08T03:37:34.366Z,71.54
2023-05-08T03:40:02.660Z,70.10
2023-05-08T03:42:31.983Z,69.75
2023-05-08T03:45:03.342Z,69.46
2023-05-08T03:47:33.603Z,69.24
2023-05-08T03:50:02.301Z,68.60
2023-05-08T03:52:32.959Z,67.95
2023-05-08T03:55:02.090Z,67.33
2023-05-08T03:57:45.240Z,66.86
2023-05-08T04:00:35.045Z,66.59
2023-05-08T04:03:28.182Z,67.97
2023-05-08T04:06:17.867Z,68.02
2023-05-08T04:08:54.634Z,69.28
2023-05-08T04:11:34.564Z,68.56
2023-05-08T04:14:08.087Z,66.80
2023-05-08T04:16:39.146Z,66.77
2023-05-08T04:19:15.956Z,66.17
2023-05-08T04:21:45.083Z,68.70
2023-05-08T04:24:16.313Z,66.70
2023-05-08T04:26:46.166Z,65.85
2023-05-08T04:29:15.063Z,66.86
2023-05-08T04:31:44.599Z,60.78
2023-05-08T04:34:13.263Z,63.46
2023-05-08T04:36:41.789Z,61.58
2023-05-08T04:39:10.670Z,66.40
2023-05-08T04:41:38.884Z,63.72
2023-05-08T04:44:07.286Z,63.41
2023-05-08T04:46:35.719Z,61.50
2023-05-08T04:49:03.889Z,60.80
2023-05-08T04:51:32.377Z,58.38
2023-05-08T04:54:00.712Z,60.54
2023-05-08T04:56:28.910Z,57.35
2023-05-08T04:58:57.380Z,58.24
2023-05-08T05:01:25.537Z,59.46
2023-05-08T05:03:53.643Z,57.82
2023-05-08T05:06:22.247Z,62.43
2023-05-08T05:08:50.192Z,59.92
2023-05-08T05:11:18.590Z,57.87
2023-05-08T05:13:47.004Z,56.69
2023-05-08T05:16:14.993Z,44.36
2023-05-08T05:18:43.073Z,51.44
2023-05-08T05:21:11.869Z,58.12
2023-05-08T05:23:39.934Z,57.91
2023-05-08T05:26:08.426Z,57.29
2023-05-08T05:28:36.959Z,48.64
2023-05-08T05:31:05.436Z,58.03
2023-05-08T05:33:33.745Z,57.30
2023-05-08T05:36:02.785Z,53.97
2023-05-08T05:38:30.787Z,53.22
2023-05-08T05:40:58.769Z,46.83
2023-05-08T05:43:27.360Z,41.83
2023-05-08T05:45:56.650Z,49.97
2023-05-08T05:48:25.184Z,47.80
2023-05-08T05:50:53.718Z,48.52
2023-05-08T05:53:22.216Z,47.23
2023-05-08T05:55:53.950Z,47.10
2023-05-08T05:58:22.953Z,46.48
2023-05-08T06:00:51.932Z,45.59
2023-05-08T06:03:20.553Z,44.88
2023-05-08T06:05:48.812Z,46.48
2023-05-08T06:08:18.303Z,38.24
2023-05-08T06:10:47.295Z,51.70
2023-05-08T06:13:15.997Z,32.93
2023-05-08T06:15:44.693Z,48.98
2023-05-08T06:18:14.169Z,48.47
2023-05-08T06:20:42.508Z,47.76
2023-05-08T06:23:10.796Z,40.05
2023-05-08T06:25:39.462Z,47.41
2023-05-08T06:28:08.560Z,43.85
2023-05-08T06:30:36.764Z,49.35
2023-05-08T06:33:05.407Z,44.67
2023-05-08T06:35:33.735Z,32.54
2023-05-08T06:38:02.280Z,48.85
2023-05-08T06:40:30.891Z,31.97
2023-05-08T06:42:59.049Z,52.40
2023-05-08T06:45:27.548Z,31.55
2023-05-08T06:47:56.110Z,45.41
2023-05-08T06:50:24.227Z,43.65
2023-05-08T06:52:52.136Z,43.62
2023-05-08T06:55:20.629Z,38.16
2023-05-08T06:57:48.695Z,46.68
2023-05-08T07:00:17.044Z,45.86
2023-05-08T07:02:45.597Z,46.46
2023-05-08T07:05:13.983Z,45.05
2023-05-08T07:07:43.110Z,44.75
2023-05-08T07:10:11.752Z,37.03
2023-05-08T07:12:52.055Z,50.15
2023-05-08T07:15:26.496Z,43.68
2023-05-08T07:17:55.305Z,43.55
2023-05-08T07:20:33.155Z,48.43
2023-05-08T07:23:01.869Z,38.19
2023-05-08T07:25:47.696Z,50.13
2023-05-08T07:28:32.785Z,31.42
2023-05-08T07:31:07.775Z,57.33
2023-05-08T07:33:48.838Z,33.97
2023-05-08T07:36:17.445Z,35.66
2023-05-08T07:38:46.120Z,40.69
2023-05-08T07:41:17.604Z,35.25
2023-05-08T07:43:58.735Z,61.54
2023-05-08T07:46:27.058Z,39.93
2023-05-08T07:49:07.821Z,34.67
2023-05-08T07:51:36.100Z,52.26
2023-05-08T07:54:04.274Z,45.69
2023-05-08T07:56:32.909Z,39.57
2023-05-08T07:59:01.102Z,50.90
2023-05-08T08:01:29.608Z,36.71
2023-05-08T08:04:01.478Z,46.14
2023-05-08T08:06:29.926Z,47.52
2023-05-08T08:08:58.737Z,29.60
2023-05-08T08:11:26.752Z,30.04
2023-05-08T08:14:07.050Z,36.68
2023-05-08T08:16:35.468Z,50.60
2023-05-08T08:19:03.980Z,33.03
2023-05-08T08:21:32.016Z,50.03
2023-05-08T08:24:00.834Z,36.82
2023-05-08T08:26:29.423Z,31.62
2023-05-08T08:28:57.752Z,32.19
2023-05-08T08:31:26.324Z,32.22
2023-05-08T08:34:06.927Z,35.28
2023-05-08T08:39:33.988Z,33.65
2023-05-08T08:42:10.074Z,33.90
2023-05-08T08:44:45.145Z,32.57
2023-05-08T08:47:30.179Z,33.04
2023-05-08T08:50:03.721Z,33.10
2023-05-08T08:52:41.071Z,33.83
2023-05-08T08:55:17.264Z,32.73
2023-05-08T08:58:14.656Z,32.57
2023-05-08T09:00:43.752Z,31.84
2023-05-08T09:03:12.726Z,31.02
2023-05-08T09:05:41.587Z,29.12
2023-05-08T09:08:11.187Z,29.08
2023-05-08T09:10:39.935Z,28.82
2023-05-08T09:13:17.413Z,28.49
2023-05-08T09:15:51.162Z,29.76
2023-05-08T09:21:09.288Z,31.97
2023-05-08T09:24:18.275Z,35.17
2023-05-08T09:27:08.713Z,28.87
2023-05-08T09:29:39.590Z,29.20
2023-05-08T09:37:44.212Z,28.34
2023-05-08T09:40:22.689Z,29.12
2023-05-08T09:42:51.587Z,29.91
2023-05-08T09:45:49.723Z,36.29
2023-05-08T09:48:40.240Z,34.24
2023-05-08T09:51:08.746Z,26.80
2023-05-08T09:53:42.165Z,36.44
2023-05-08T09:56:10.475Z,31.01
2023-05-08T09:58:41.463Z,23.04
2023-05-08T10:01:35.210Z,23.42
2023-05-08T10:04:06.370Z,24.88
2023-05-08T10:06:36.864Z,31.93
2023-05-08T10:09:15.975Z,23.30
2023-05-08T10:11:53.983Z,25.56
2023-05-08T10:14:27.236Z,26.34
2023-05-08T10:16:55.809Z,25.96
2023-05-08T10:19:29.010Z,25.88
2023-05-08T10:24:47.531Z,31.10
2023-05-08T10:28:11.436Z,27.74
2023-05-08T10:30:51.051Z,29.37
2023-05-08T10:33:25.296Z,29.01
2023-05-08T10:35:57.429Z,31.21
2023-05-08T10:38:26.735Z,29.98
2023-05-08T10:40:58.421Z,29.22
2023-05-08T10:43:29.074Z,30.55
2023-05-08T10:45:59.416Z,30.52
2023-05-08T10:48:39.682Z,30.71
2023-05-08T10:51:22.736Z,31.27
2023-05-08T10:54:08.911Z,28.78
2023-05-08T10:56:39.990Z,28.36
2023-05-08T10:59:21.514Z,28.82
2023-05-08T11:01:50.956Z,38.82
2023-05-08T11:04:24.744Z,28.34
2023-05-08T11:06:53.875Z,28.07
2023-05-08T11:09:44.106Z,32.01
2023-05-08T11:12:26.221Z,24.64
2023-05-08T11:15:07.047Z,25.12
2023-05-08T11:17:35.903Z,26.00
2023-05-08T11:20:07.371Z,26.76
2023-05-08T11:22:37.504Z,26.35
2023-05-08T11:25:14.844Z,29.11
2023-05-08T11:28:06.837Z,34.85
2023-05-08T11:30:39.909Z,29.24
2023-05-08T11:33:11.502Z,29.04
2023-05-08T11:35:57.453Z,29.39
2023-05-08T11:38:28.644Z,30.14
2023-05-08T11:40:58.961Z,31.08
2023-05-08T11:43:34.053Z,31.67
2023-05-08T11:46:20.725Z,31.56
2023-05-08T11:48:50.216Z,30.77
2023-05-08T11:51:20.571Z,30.12
2023-05-08T11:53:48.961Z,32.30
2023-05-08T11:56:20.793Z,30.32
2023-05-08T11:58:49.032Z,31.59
2023-05-08T12:01:21.386Z,30.36
2023-05-08T12:03:50.183Z,29.85
2023-05-08T12:06:19.828Z,29.56
2023-05-08T12:08:48.183Z,30.26
2023-05-08T12:11:24.691Z,30.39
2023-05-08T12:13:54.274Z,30.13
2023-05-08T12:16:26.649Z,40.95
2023-05-08T12:18:57.359Z,30.08
2023-05-08T12:21:25.933Z,30.69
2023-05-08T12:23:56.647Z,30.20
2023-05-08T12:26:25.045Z,31.65
2023-05-08T12:28:58.115Z,28.95
2023-05-08T12:31:29.429Z,29.62
2023-05-08T12:33:58.568Z,29.61
2023-05-08T12:36:27.641Z,27.87
2023-05-08T12:39:13.311Z,27.17
2023-05-08T12:41:52.255Z,27.04
2023-05-08T12:44:22.732Z,25.82
2023-05-08T12:46:57.110Z,27.59
2023-05-08T12:49:30.935Z,26.28
2023-05-08T12:52:08.477Z,26.79
2023-05-08T12:54:41.705Z,27.81
2023-05-08T12:57:22.743Z,29.91
2023-05-08T13:00:12.629Z,29.63
2023-05-08T13:02:54.208Z,30.01
2023-05-08T13:05:24.278Z,31.36
2023-05-08T13:07:52.891Z,31.03
2023-05-08T13:10:23.956Z,31.13
2023-05-08T13:12:53.614Z,30.56
2023-05-08T13:15:21.679Z,31.17
2023-05-08T13:17:50.181Z,31.16
2023-05-08T13:20:18.744Z,30.44
2023-05-08T13:22:46.795Z,31.76
2023-05-08T13:25:15.587Z,30.80
2023-05-08T13:27:44.560Z,30.65
2023-05-08T13:30:15.876Z,30.01
2023-05-08T13:32:51.824Z,30.16
2023-05-08T13:38:06.995Z,28.64
2023-05-08T13:40:35.550Z,28.56
2023-05-08T13:43:03.865Z,28.32
2023-05-08T13:45:33.524Z,29.04
2023-05-08T13:48:02.023Z,29.85
2023-05-08T13:50:41.611Z,29.93
2023-05-08T13:56:03.632Z,30.57
2023-05-08T13:58:48.445Z,33.83
2023-05-08T14:01:26.313Z,29.36
2023-05-08T14:03:58.165Z,29.20
2023-05-08T14:06:27.262Z,30.23
2023-05-08T14:08:57.168Z,30.35
2023-05-08T14:14:12.079Z,30.26
2023-05-08T14:16:40.488Z,28.93
2023-05-08T14:19:08.955Z,27.73
2023-05-08T14:21:38.028Z,27.84
2023-05-08T14:24:08.511Z,27.40
2023-05-08T14:29:23.333Z,27.61
2023-05-08T14:31:52.791Z,25.70
2023-05-08T14:34:35.437Z,24.76
2023-05-08T14:37:11.187Z,26.17
2023-05-08T14:39:39.983Z,26.62
2023-05-08T14:44:54.526Z,28.93
2023-05-08T14:47:24.636Z,29.41
2023-05-08T14:49:56.646Z,29.24
2023-05-08T14:52:25.603Z,29.38
2023-05-08T14:54:56.699Z,29.94
2023-05-08T14:57:41.642Z,29.98
2023-05-08T15:00:21.840Z,30.34
2023-05-08T15:02:50.948Z,31.05
2023-05-08T15:05:20.503Z,30.98
2023-05-08T15:07:50.600Z,29.20
2023-05-08T15:10:30.965Z,28.05
2023-05-08T15:13:02.254Z,28.41
2023-05-08T15:15:31.376Z,29.22
2023-05-08T15:18:00.410Z,29.89
2023-05-08T15:20:29.259Z,30.17
2023-05-08T15:22:58.124Z,29.91
2023-05-08T15:25:26.493Z,33.61
2023-05-08T15:31:08.642Z,28.67
2023-05-08T15:36:23.260Z,26.71
2023-05-08T15:38:51.585Z,27.87
2023-05-08T15:41:27.215Z,28.38
2023-05-08T15:43:55.748Z,28.77
2023-05-08T15:46:23.780Z,27.93
2023-05-08T15:48:54.230Z,27.19
2023-05-08T15:51:22.967Z,25.05
2023-05-08T15:53:52.887Z,22.28
2023-05-08T15:59:10.779Z,23.10
2023-05-08T16:01:39.562Z,25.34
2023-05-08T16:04:11.176Z,27.20
2023-05-08T16:06:39.443Z,27.26
2023-05-08T16:09:08.428Z,26.82
2023-05-08T16:11:37.074Z,25.61
2023-05-08T16:14:05.328Z,25.93
2023-05-08T16:16:33.993Z,27.48
2023-05-08T16:19:02.155Z,28.92
2023-05-08T16:21:30.393Z,35.10
2023-05-08T16:23:59.051Z,32.88
2023-05-08T16:26:27.387Z,33.46
2023-05-08T16:28:55.848Z,34.12
2023-05-08T16:31:24.733Z,39.08
2023-05-08T16:36:39.469Z,38.46
2023-05-08T16:39:08.318Z,38.89
2023-05-08T16:41:36.828Z,39.93
2023-05-08T16:44:05.883Z,42.55
2023-05-08T16:46:34.800Z,42.88
2023-05-08T16:49:02.924Z,43.12
2023-05-08T16:51:32.752Z,42.74
2023-05-08T16:54:01.255Z,43.01
2023-05-08T16:56:29.382Z,43.57
2023-05-08T16:58:58.717Z,41.67
2023-05-08T17:01:29.410Z,40.29
2023-05-08T17:04:00.668Z,40.97
2023-05-08T17:06:28.928Z,42.36
2023-05-08T17:08:57.803Z,42.42
2023-05-08T17:11:26.375Z,43.02
2023-05-08T17:13:54.571Z,43.55
2023-05-08T17:16:23.680Z,43.53
2023-05-08T17:18:51.905Z,43.83
2023-05-08T17:21:20.377Z,44.86
2023-05-08T17:23:49.889Z,44.61
2023-05-08T17:26:18.795Z,44.61
2023-05-08T17:28:47.148Z,44.29
2023-05-08T17:31:16.282Z,44.55
2023-05-08T17:33:44.271Z,45.17
2023-05-08T17:36:12.682Z,45.97
2023-05-08T17:38:46.249Z,47.01
2023-05-08T17:41:14.860Z,46.59
2023-05-08T17:43:43.584Z,48.05
2023-05-08T17:46:17.985Z,47.43
2023-05-08T17:48:49.795Z,47.47
2023-05-08T17:51:18.654Z,48.69
2023-05-08T17:53:47.614Z,50.31
2023-05-08T17:56:20.979Z,52.10
2023-05-08T17:58:51.046Z,52.97
2023-05-08T18:01:21.481Z,53.85
2023-05-08T18:03:52.946Z,54.05
2023-05-08T18:06:22.039Z,51.57
2023-05-08T18:08:50.605Z,50.52
2023-05-08T18:11:24.302Z,49.58
2023-05-08T18:13:57.267Z,49.45
2023-05-08T18:16:26.004Z,49.22
2023-05-08T18:18:55.442Z,50.46
2023-05-08T18:21:25.133Z,51.93
2023-05-08T18:23:54.541Z,54.44
2023-05-08T18:26:23.607Z,57.41
2023-05-08T18:28:52.944Z,58.62
2023-05-08T18:31:21.583Z,58.40
2023-05-08T18:33:51.651Z,55.34
2023-05-08T18:36:21.213Z,53.21
2023-05-08T18:38:50.332Z,55.26
2023-05-08T18:41:19.090Z,59.36
2023-05-08T18:43:51.388Z,57.53
2023-05-08T18:46:20.639Z,53.64
2023-05-08T18:48:49.918Z,53.15
2023-05-08T18:51:19.592Z,55.97
2023-05-08T18:54:43.903Z,61.24
2023-05-08T19:00:06.981Z,62.94
2023-05-08T19:02:35.300Z,63.86
2023-05-08T19:05:03.633Z,63.95
2023-05-08T19:07:32.363Z,58.45
2023-05-08T19:10:00.782Z,59.74
2023-05-08T19:12:29.611Z,56.58
2023-05-08T19:14:58.366Z,58.56
2023-05-08T19:17:26.401Z,58.26
2023-05-08T19:19:55.255Z,59.36
2023-05-08T19:22:23.959Z,60.96
2023-05-08T19:24:52.185Z,59.90
2023-05-08T19:27:20.463Z,62.39
2023-05-08T19:29:49.028Z,63.93
2023-05-08T19:32:17.289Z,64.82
2023-05-08T19:34:45.466Z,64.87
2023-05-08T19:37:17.334Z,61.62
2023-05-08T19:39:48.821Z,58.65
2023-05-08T19:42:17.334Z,58.22
2023-05-08T19:44:45.652Z,59.30
2023-05-08T19:47:14.704Z,59.06
2023-05-08T19:49:43.666Z,58.11
2023-05-08T19:52:12.243Z,57.45
2023-05-08T19:54:40.363Z,57.81
2023-05-08T19:57:08.991Z,57.69
2023-05-08T19:59:37.635Z,57.35
2023-05-08T20:02:08.753Z,56.15
2023-05-08T20:04:48.629Z,56.30
2023-05-08T20:07:25.180Z,56.79
2023-05-08T20:09:53.742Z,57.59
2023-05-08T20:12:21.953Z,58.90
2023-05-08T20:14:50.239Z,61.78
2023-05-08T20:17:18.798Z,62.88
2023-05-08T20:19:47.049Z,62.43
2023-05-08T20:22:15.210Z,61.99
2023-05-08T20:24:43.459Z,65.19
2023-05-08T20:27:11.698Z,65.82
2023-05-08T20:29:39.875Z,65.23
2023-05-08T20:32:08.561Z,64.25
2023-05-08T20:34:36.643Z,63.48
2023-05-08T20:37:04.651Z,61.77
2023-05-08T20:39:33.041Z,61.08
2023-05-08T20:42:01.118Z,60.12
2023-05-08T20:44:28.966Z,60.63
2023-05-08T20:46:57.197Z,61.03
2023-05-08T20:49:25.379Z,61.45
2023-05-08T20:51:53.350Z,62.96
2023-05-08T20:54:21.838Z,65.16
2023-05-08T20:56:50.153Z,63.46
2023-05-08T20:59:19.104Z,63.55
2023-05-08T21:01:48.697Z,63.89
2023-05-08T21:04:17.008Z,62.07
2023-05-08T21:06:45.039Z,61.34
2023-05-08T21:09:13.454Z,60.95
2023-05-08T21:11:41.494Z,59.18
2023-05-08T21:14:09.605Z,60.09
2023-05-08T21:16:38.233Z,59.67
2023-05-08T21:19:06.338Z,60.02
2023-05-08T21:21:35.455Z,61.59
2023-05-08T21:24:04.635Z,62.71
2023-05-08T21:26:32.645Z,62.27
2023-05-08T21:29:00.900Z,61.58
2023-05-08T21:31:29.398Z,62.15
2023-05-08T21:33:57.664Z,62.79
2023-05-08T21:36:25.803Z,64.10
2023-05-08T21:38:54.204Z,67.57
2023-05-08T21:41:22.737Z,69.59
2023-05-08T21:43:51.068Z,70.74
2023-05-08T21:46:19.363Z,71.69
2023-05-08T21:48:47.423Z,72.44
2023-05-08T21:51:15.383Z,73.27
2023-05-08T21:53:43.635Z,73.87
2023-05-08T21:56:11.434Z,73.90
2023-05-08T21:58:39.352Z,73.70
2023-05-08T22:01:07.741Z,66.69
2023-05-08T22:03:36.159Z,64.37
2023-05-08T22:06:04.346Z,63.86
2023-05-08T22:08:32.390Z,66.16
2023-05-08T22:11:00.983Z,67.58
2023-05-08T22:13:30.935Z,67.66
2023-05-08T22:15:59.059Z,68.66
2023-05-08T22:18:27.423Z,70.50
2023-05-08T22:20:55.576Z,70.24
2023-05-08T22:23:23.513Z,70.09
2023-05-08T22:25:52.097Z,69.67
2023-05-08T22:28:20.163Z,70.30
2023-05-08T22:30:48.195Z,70.59
2023-05-08T22:33:16.664Z,68.32
2023-05-08T22:35:44.694Z,65.92
2023-05-08T22:38:12.715Z,66.08
2023-05-08T22:40:42.761Z,66.46
2023-05-08T22:43:10.918Z,68.66
2023-05-08T22:45:39.057Z,70.79
2023-05-08T22:48:07.834Z,74.03
2023-05-08T22:50:37.023Z,73.46
2023-05-08T22:53:08.832Z,75.27
2023-05-08T22:55:37.861Z,77.55
2023-05-08T22:58:05.894Z,77.53
2023-05-08T23:00:33.904Z,76.90
2023-05-08T23:03:02.454Z,75.80
2023-05-08T23:05:30.488Z,76.59
2023-05-08T23:07:58.555Z,76.16
2023-05-08T23:10:27.055Z,77.24
2023-05-08T23:12:54.940Z,76.16
2023-05-08T23:15:22.908Z,75.72
2023-05-08T23:17:51.323Z,76.84
2023-05-08T23:20:19.508Z,77.44
2023-05-08T23:22:47.565Z,78.00
2023-05-08T23:25:16.164Z,78.13
2023-05-08T23:27:44.289Z,79.41
2023-05-08T23:30:13.577Z,82.28
2023-05-08T23:32:42.025Z,84.22
2023-05-08T23:35:11.044Z,83.66
2023-05-08T23:37:39.125Z,84.03
2023-05-08T23:40:08.231Z,81.80
2023-05-08T23:42:37.539Z,79.85
2023-05-08T23:45:06.651Z,78.75
2023-05-08T23:47:34.894Z,78.62
2023-05-08T23:50:02.987Z,79.05
2023-05-08T23:52:32.270Z,78.12
2023-05-08T23:55:01.717Z,78.21
2023-05-08T23:57:31.850Z,76.82
